Mount Pleasant, IA

1:52 AM CDT on August 29, 2016 (GMT -0500)
Mount Pleasant Municipal

Weather History for KMPZ - June, 2013

Change the Weather History Date:

Saturday, June 22, 2013

  Actual Average Record
Temperature  
Mean Temperature 84 °F -  
Max Temperature 94 °F 82 °F 96 °F (1988)
Min Temperature 76 °F 60 °F 48 °F (1963)
Cooling Degree Days 20    
Growing Degree Days 34 (Base 50)    
Moisture  
Dew Point 70 °F    
Average Humidity 63    
Maximum Humidity 79    
Minimum Humidity 43    
Precipitation  
Precipitation 0.00 in - - ()
Sea Level Pressure  
Sea Level Pressure 29.97 in    
Wind  
Wind Speed 12 mph (South)    
Max Wind Speed 18 mph    
Max Gust Speed 25 mph    
Visibility 9 miles    
Events      
Averages and records for this station are not official NWS values.
T = Trace of Precipitation, MM = Missing Value Source: NWS Daily Summary

Daily Weather History Graph

Daily Weather History Graph

Search for Another Location

Airport or City:

Trip Planner

Search our weather history database for the weather conditions in past years. The results will help you decide how hot, cold, wet, or windy it might be!

Date:

Astronomy

Jun. 22, 2013 Rise Set
Actual Time 5:34 AM CDT 8:41 PM CDT
Civil Twilight 5:00 AM CDT 9:15 PM CDT
Nautical Twilight 4:17 AM CDT 9:58 PM CDT
Astronomical Twilight 3:26 AM CDT 10:49 PM CDT
Moon 7:56 PM CDT (6/22) 4:47 AM CDT (6/22)
Length of Visible Light 16h 14m
Length of Day
15h 07m
Waxing Gibbous, 99% of the Moon is Illuminated
Jun 22
Waxing Gibbous
Jun 23
Full
Jun 29
Last Quarter
Jul 8
New
Jul 15
First Quarter

Hourly Weather History & Observations

Time (CDT) Temp. Heat Index Dew Point Humidity Pressure Visibility Wind Dir Wind Speed Gust Speed Precip Events Conditions
12:15 AM 81.7 °F 85.8 °F 71.1 °F 70% 29.98 in 10.0 mi South 10.4 mph - N/A   Clear
12:35 AM 81.5 °F 85.5 °F 70.7 °F 70% 29.98 in 10.0 mi South 9.2 mph - N/A   Clear
12:55 AM 80.8 °F 84.4 °F 70.7 °F 71% 29.97 in 10.0 mi SSE 8.1 mph - N/A   Clear
1:15 AM 80.6 °F 84.2 °F 70.7 °F 72% 29.96 in 10.0 mi South 10.4 mph 16.1 mph N/A   Clear
1:35 AM 80.1 °F 83.4 °F 70.9 °F 73% 29.94 in 10.0 mi South 11.5 mph - N/A   Clear
1:55 AM 79.7 °F - 71.1 °F 75% 29.93 in 10.0 mi South 11.5 mph - N/A   Clear
2:15 AM 79.9 °F - 71.2 °F 75% 29.93 in 10.0 mi South 12.7 mph 18.4 mph N/A   Clear
2:35 AM 80.1 °F 83.6 °F 71.1 °F 74% 29.93 in 10.0 mi South 15.0 mph - N/A   Clear
2:55 AM 80.1 °F 83.4 °F 70.7 °F 73% 29.94 in 10.0 mi SSW 16.1 mph 21.9 mph N/A   Clear
3:15 AM 80.4 °F 83.9 °F 70.7 °F 72% 29.96 in 10.0 mi SSW 13.8 mph - N/A   Clear
3:35 AM 79.9 °F - 70.7 °F 73% 29.98 in 10.0 mi South 10.4 mph - N/A   Clear
3:55 AM 79.7 °F - 70.9 °F 74% 29.98 in 10.0 mi South 10.4 mph - N/A   Clear
4:15 AM 79.0 °F - 70.9 °F 76% 29.98 in 10.0 mi South 10.4 mph - N/A   Clear
4:35 AM 78.6 °F - 70.9 °F 77% 29.98 in 10.0 mi South 9.2 mph - N/A   Clear
4:55 AM 78.4 °F - 70.9 °F 77% 29.98 in 10.0 mi South 10.4 mph - N/A   Clear
5:15 AM 78.3 °F - 70.9 °F 78% 29.98 in 10.0 mi South 10.4 mph - N/A   Clear
5:35 AM 77.9 °F - 71.1 °F 79% 29.98 in 10.0 mi South 11.5 mph - N/A   Clear
5:55 AM 77.7 °F - 70.9 °F 79% 29.98 in 10.0 mi South 9.2 mph - N/A   Clear
6:15 AM 77.9 °F - 70.7 °F 78% 29.99 in 10.0 mi SSW 11.5 mph - N/A   Clear
6:35 AM 78.1 °F - 70.7 °F 78% 30.00 in 10.0 mi South 8.1 mph - N/A   Clear
7:15 AM 78.6 °F - 70.7 °F 77% 30.01 in 10.0 mi South 9.2 mph - N/A   Clear
7:35 AM 78.8 °F - 70.7 °F 76% 30.01 in 10.0 mi South 12.7 mph - N/A   Clear
7:55 AM 79.0 °F - 70.7 °F 76% 30.00 in 10.0 mi South 13.8 mph - N/A   Clear
8:15 AM 79.3 °F - 70.5 °F 74% 30.00 in 10.0 mi South 11.5 mph 19.6 mph N/A   Clear
8:35 AM 80.4 °F 84.1 °F 71.1 °F 73% 30.01 in 10.0 mi South 10.4 mph - N/A   Clear
8:55 AM 81.5 °F 85.5 °F 70.7 °F 70% 30.00 in 7.0 mi South 13.8 mph - N/A   Clear
9:15 AM 81.3 °F 85.0 °F 70.3 °F 69% 30.02 in 10.0 mi SSW 11.5 mph - N/A   Clear
9:35 AM 82.9 °F 87.2 °F 70.7 °F 66% 30.02 in 10.0 mi SSW 11.5 mph - N/A   Clear
9:55 AM 84.2 °F 88.4 °F 70.0 °F 62% 30.03 in 7.0 mi SSW 12.7 mph - N/A   Clear
10:15 AM 84.7 °F 89.1 °F 70.0 °F 61% 30.03 in 7.0 mi SSW 13.8 mph - N/A   Clear
10:35 AM 86.5 °F 91.0 °F 69.6 °F 57% 30.02 in 7.0 mi SW 18.4 mph - N/A   Clear
10:55 AM 86.9 °F 91.3 °F 69.6 °F 56% 30.03 in 7.0 mi SW 13.8 mph 23.0 mph N/A   Clear
11:15 AM 87.6 °F 91.9 °F 69.3 °F 54% 30.03 in 7.0 mi SW 10.4 mph - N/A   Clear
11:35 AM 88.0 °F 92.5 °F 69.6 °F 54% 30.03 in 7.0 mi SW 11.5 mph - N/A   Scattered Clouds
11:55 AM 88.2 °F 92.5 °F 69.1 °F 53% 30.02 in 7.0 mi WSW 8.1 mph 16.1 mph N/A   Scattered Clouds
12:15 PM 88.5 °F 93.1 °F 69.3 °F 53% 30.01 in 7.0 mi SW 9.2 mph - N/A   Scattered Clouds
12:35 PM 89.6 °F 94.7 °F 69.6 °F 52% 30.00 in 10.0 mi South 10.4 mph 17.3 mph N/A   Scattered Clouds
12:55 PM 89.8 °F 94.2 °F 68.7 °F 50% 29.99 in 10.0 mi SSW 15.0 mph - N/A   Clear
1:15 PM 90.3 °F 94.3 °F 68.4 °F 48% 29.98 in 7.0 mi SSW 15.0 mph 21.9 mph N/A   Clear
1:35 PM 90.9 °F 95.3 °F 68.5 °F 48% 29.98 in 7.0 mi SSW 18.4 mph - N/A   Clear
1:55 PM 91.4 °F 95.8 °F 68.5 °F 47% 29.97 in 7.0 mi South 16.1 mph 20.7 mph N/A   Clear
2:15 PM 92.1 °F 97.7 °F 69.6 °F 48% 29.96 in 7.0 mi South 16.1 mph 20.7 mph N/A   Clear
2:35 PM 92.3 °F 97.0 °F 68.7 °F 46% 29.96 in 7.0 mi SSW 16.1 mph - N/A   Clear
2:55 PM 92.7 °F 96.7 °F 68.0 °F 44% 29.92 in 7.0 mi South 18.4 mph 24.2 mph N/A   Clear
3:15 PM 93.2 °F 97.7 °F 68.5 °F 44% 29.92 in 7.0 mi South 17.3 mph 21.9 mph N/A   Clear
3:35 PM 93.0 °F 97.9 °F 68.9 °F 45% 29.91 in 10.0 mi South 17.3 mph 25.3 mph N/A   Clear
3:55 PM 93.6 °F 97.9 °F 68.2 °F 43% 29.91 in 7.0 mi SSE 18.4 mph 23.0 mph N/A   Clear
4:15 PM 93.7 °F 98.2 °F 68.4 °F 43% 29.91 in 10.0 mi South 16.1 mph - N/A   Clear
4:35 PM 92.5 °F 96.4 °F 67.6 °F 44% 29.92 in 7.0 mi South 17.3 mph 20.7 mph N/A   Clear
4:55 PM 91.9 °F 96.4 °F 68.4 °F 46% 29.93 in 7.0 mi South 13.8 mph 20.7 mph N/A   Clear
5:15 PM 91.4 °F 96.3 °F 69.3 °F 48% 29.92 in 10.0 mi South 11.5 mph - N/A   Clear
5:35 PM 90.9 °F 96.7 °F 70.3 °F 51% 29.92 in 7.0 mi South 13.8 mph - N/A   Clear
5:55 PM 90.1 °F 95.3 °F 69.6 °F 51% 29.92 in 7.0 mi South 11.5 mph - N/A   Clear
6:15 PM 89.6 °F 94.7 °F 69.8 °F 52% 29.92 in 7.0 mi South 11.5 mph - N/A   Clear
6:35 PM 88.9 °F 94.2 °F 70.2 °F 54% 29.92 in 7.0 mi South 9.2 mph - N/A   Clear
6:55 PM 88.3 °F 93.6 °F 70.2 °F 55% 29.92 in 7.0 mi SSE 10.4 mph - N/A   Clear
7:15 PM 87.6 °F 92.7 °F 70.2 °F 56% 29.92 in 7.0 mi SSE 10.4 mph - N/A   Clear
7:35 PM 86.4 °F 91.8 °F 70.9 °F 60% 29.92 in 7.0 mi SSE 11.5 mph - N/A   Clear
7:55 PM 85.1 °F 91.1 °F 72.0 °F 65% 29.93 in 7.0 mi SSE 12.7 mph - N/A   Clear
8:15 PM 84.0 °F 89.6 °F 72.1 °F 67% 29.93 in 7.0 mi SSE 16.1 mph - N/A   Clear
8:35 PM 83.1 °F 88.4 °F 72.0 °F 69% 29.93 in 7.0 mi SSE 15.0 mph 21.9 mph N/A   Clear
8:55 PM 82.2 °F 87.1 °F 71.8 °F 71% 29.93 in 10.0 mi SSE 12.7 mph - N/A   Clear
9:15 PM 81.1 °F 85.4 °F 71.6 °F 73% 29.93 in 10.0 mi SSE 16.1 mph - N/A   Clear
9:35 PM 80.6 °F 84.2 °F 70.7 °F 72% 29.94 in 10.0 mi South 15.0 mph 23.0 mph N/A   Clear
9:55 PM 79.9 °F - 69.3 °F 70% 29.95 in 10.0 mi SSE 18.4 mph 23.0 mph N/A   Clear
10:15 PM 79.2 °F - 68.2 °F 69% 29.96 in 10.0 mi South 17.3 mph 24.2 mph N/A   Clear
10:35 PM 78.3 °F - 67.5 °F 69% 29.95 in 10.0 mi South 17.3 mph 21.9 mph N/A   Clear
10:55 PM 77.5 °F - 66.6 °F 69% 29.97 in 10.0 mi South 15.0 mph 25.3 mph N/A   Clear
11:15 PM 77.0 °F - 66.4 °F 70% 29.98 in 10.0 mi South 12.7 mph - N/A   Clear
11:35 PM 76.5 °F - 66.2 °F 70% 29.98 in 10.0 mi South 15.0 mph - N/A   Clear
11:55 PM 76.3 °F - 65.5 °F 69% 29.98 in 10.0 mi South 13.8 mph - N/A   Clear